Time;durP1;ratioP1;P1;durP2;ratioP2;P2;SDS_P1;SDS_P2;PMS_P1;PMS_P2;Temp;Humidity;BMP_temperature;BMP_pressure;BME280_temperature;BME280_humidity;BME280_pressure;Samples;Min_cycle;Max_cycle;Signal;HPM_P1;HPM_P2
2022/01/20 00:03:40;;;;;;;36.93;3.37;;;6.00;99.90;;;;;;7342282;19;109258;-82
2022/01/20 00:07:05;;;;;;;41.03;4.73;;;6.00;99.90;;;;;;7339392;19;113663;-81
2022/01/20 00:28:13;;;;;;;36.70;3.80;;;6.00;99.90;;;;;;7345930;19;113452;-81
2022/01/20 00:38:24;;;;;;;35.33;3.43;;;5.90;99.90;;;;;;7342096;19;109387;-82
2022/01/20 00:40:52;;;;;;;30.17;3.90;;;5.80;99.90;;;;;;7341524;19;111273;-81
2022/01/20 00:43:19;;;;;;;28.43;3.47;;;5.80;99.90;;;;;;7338414;19;112468;-80
2022/01/20 00:45:47;;;;;;;30.90;3.33;;;5.80;99.90;;;;;;7340064;19;109179;-81
2022/01/20 00:48:17;;;;;;;25.23;4.03;;;5.80;99.90;;;;;;7342329;19;111519;-81
2022/01/20 00:50:44;;;;;;;30.97;3.60;;;5.80;99.90;;;;;;7341176;19;109873;-81
2022/01/20 00:53:11;;;;;;;29.60;3.63;;;5.70;99.90;;;;;;7338855;19;111822;-81
2022/01/20 00:55:39;;;;;;;;;;;5.70;99.90;;;;;;7339365;19;112651;-81
2022/01/20 00:58:07;;;;;;;30.02;3.80;;;5.60;99.90;;;;;;7345044;19;110100;-81
2022/01/20 01:00:35;;;;;;;27.80;3.43;;;5.60;99.90;;;;;;7337182;19;111444;-81
2022/01/20 01:03:03;;;;;;;24.00;3.77;;;5.60;99.90;;;;;;7340938;19;111955;-81
2022/01/20 01:05:30;;;;;;;27.47;3.73;;;5.50;99.90;;;;;;7336220;19;111658;-83
2022/01/20 01:07:57;;;;;;;32.50;3.90;;;5.50;99.90;;;;;;7341727;19;111488;-82
2022/01/20 01:10:30;;;;;;;26.33;4.03;;;5.40;99.90;;;;;;7341111;19;110703;-82
2022/01/20 01:15:31;;;;;;;31.70;3.43;;;5.40;99.90;;;;;;7340756;19;112454;-82
2022/01/20 01:21:10;;;;;;;34.63;4.00;;;5.30;99.90;;;;;;7347536;19;112433;-81
2022/01/20 01:23:40;;;;;;;31.50;3.53;;;5.30;99.90;;;;;;7342564;19;112748;-82
2022/01/20 01:26:13;;;;;;;36.47;3.87;;;5.30;99.90;;;;;;7344656;19;109839;-81
2022/01/20 01:28:41;;;;;;;37.70;3.80;;;5.30;99.90;;;;;;7344919;19;111630;-81
2022/01/20 01:34:06;;;;;;;32.87;3.37;;;5.30;99.90;;;;;;7352816;19;110138;-82
2022/01/20 01:36:48;;;;;;;31.80;3.73;;;5.40;99.90;;;;;;7341702;19;112173;-83
2022/01/20 01:39:16;;;;;;;20.00;2.73;;;5.40;99.90;;;;;;7346573;19;109310;-82
2022/01/20 01:41:45;;;;;;;24.33;3.57;;;5.40;99.90;;;;;;7338450;19;111043;-82
2022/01/20 01:44:20;;;;;;;33.03;4.43;;;5.50;99.90;;;;;;7344502;19;115092;-81
2022/01/20 01:46:48;;;;;;;29.40;3.93;;;5.50;99.90;;;;;;7341914;19;109408;-81
2022/01/20 01:49:17;;;;;;;26.57;3.87;;;5.50;99.90;;;;;;7343512;19;111481;-81
2022/01/20 01:51:44;;;;;;;25.90;2.70;;;5.60;99.90;;;;;;7346076;19;112465;-81
2022/01/20 01:54:14;;;;;;;27.97;3.17;;;5.60;99.90;;;;;;7343260;19;110489;-82
2022/01/20 01:56:41;;;;;;;29.87;3.57;;;5.60;99.90;;;;;;7349190;19;111568;-82
2022/01/20 01:59:09;;;;;;;22.87;3.70;;;5.60;99.90;;;;;;7341242;19;110070;-81
2022/01/20 02:01:38;;;;;;;27.20;3.50;;;5.60;99.90;;;;;;7345752;19;111541;-81
2022/01/20 02:04:18;;;;;;;29.03;3.27;;;5.60;99.90;;;;;;7342168;19;111645;-81
2022/01/20 02:20:12;;;;;;;23.40;3.30;;;5.70;99.90;;;;;;7349064;19;112383;-82
2022/01/20 02:22:40;;;;;;;18.52;2.72;;;5.70;99.90;;;;;;7344960;19;110402;-82
2022/01/20 02:25:37;;;;;;;24.43;2.60;;;5.70;99.90;;;;;;7341611;19;111917;-81
2022/01/20 02:28:09;;;;;;;22.27;2.73;;;5.70;99.90;;;;;;7343098;19;110543;-82
2022/01/20 02:30:39;;;;;;;19.47;2.70;;;5.70;99.90;;;;;;7342181;19;113557;-81
2022/01/20 02:33:12;;;;;;;20.70;3.13;;;5.70;99.90;;;;;;7342019;19;113273;-81
2022/01/20 02:35:46;;;;;;;19.57;3.10;;;5.60;99.90;;;;;;7345629;19;110564;-82
2022/01/20 02:38:21;;;;;;;20.40;2.47;;;5.60;99.90;;;;;;7340088;19;110988;-82
2022/01/20 02:46:07;;;;;;;23.57;2.60;;;5.70;99.90;;;;;;7342635;19;111808;-82
2022/01/20 02:48:35;;;;;;;16.77;1.97;;;5.70;99.90;;;;;;7344869;19;110100;-81
2022/01/20 02:51:03;;;;;;;17.87;2.10;;;5.70;99.90;;;;;;7341638;19;111012;-81
2022/01/20 02:53:30;;;;;;;22.60;2.10;;;5.70;99.90;;;;;;7342562;19;113289;-82
2022/01/20 02:55:57;;;;;;;20.80;2.73;;;5.70;99.90;;;;;;7341496;19;110138;-82
2022/01/20 02:58:24;;;;;;;17.40;2.40;;;5.80;99.90;;;;;;7341815;19;111706;-81
2022/01/20 03:00:51;;;;;;;18.60;2.43;;;5.80;99.90;;;;;;7341411;19;112172;-82
2022/01/20 03:03:18;;;;;;;20.77;1.83;;;5.80;99.90;;;;;;7348690;19;110947;-81
2022/01/20 03:05:46;;;;;;;15.73;2.00;;;5.90;99.90;;;;;;7341147;19;110508;-81
2022/01/20 03:08:13;;;;;;;19.33;2.13;;;5.90;99.90;;;;;;7340511;19;109391;-81
2022/01/20 03:10:40;;;;;;;9.77;1.50;;;5.90;99.90;;;;;;7344160;19;111135;-82
2022/01/20 03:13:07;;;;;;;11.30;1.53;;;5.90;99.90;;;;;;7340023;19;112399;-81
2022/01/20 03:15:35;;;;;;;9.10;1.30;;;5.90;99.90;;;;;;7342146;19;111671;-82
2022/01/20 03:18:04;;;;;;;11.10;1.47;;;5.90;99.90;;;;;;7340791;19;113006;-84
2022/01/20 03:20:32;;;;;;;7.33;1.57;;;5.90;99.90;;;;;;7340828;19;112024;-80
2022/01/20 03:23:00;;;;;;;14.53;1.67;;;5.90;99.90;;;;;;7341327;19;111169;-80
2022/01/20 03:25:27;;;;;;;9.63;1.30;;;6.00;99.90;;;;;;7346726;19;111507;-80
2022/01/20 03:27:55;;;;;;;12.13;1.40;;;6.00;99.90;;;;;;7342793;19;110091;-80
2022/01/20 03:30:23;;;;;;;5.60;1.13;;;6.00;99.90;;;;;;7338358;19;109800;-80
2022/01/20 03:32:50;;;;;;;10.47;1.47;;;6.00;99.90;;;;;;7341567;19;112578;-80
2022/01/20 03:35:17;;;;;;;11.03;1.20;;;6.10;99.90;;;;;;7337678;19;111659;-80
2022/01/20 03:37:44;;;;;;;10.70;1.23;;;6.10;99.90;;;;;;7339828;19;111482;-80
2022/01/20 03:40:13;;;;;;;10.43;1.30;;;6.10;99.90;;;;;;7338462;19;114527;-80
2022/01/20 03:42:40;;;;;;;7.63;1.00;;;6.10;99.90;;;;;;7340342;19;109379;-80
2022/01/20 03:45:07;;;;;;;8.33;1.53;;;6.10;99.90;;;;;;7339775;19;109766;-80
2022/01/20 03:47:34;;;;;;;11.90;1.23;;;6.10;99.90;;;;;;7346228;19;112050;-80
2022/01/20 03:52:32;;;;;;;9.97;1.17;;;6.10;99.90;;;;;;7339825;19;112607;-80
2022/01/20 03:54:59;;;;;;;11.47;1.23;;;6.10;99.90;;;;;;7342136;19;109520;-80
2022/01/20 03:57:27;;;;;;;15.37;1.10;;;6.10;99.90;;;;;;7338935;19;111967;-80
2022/01/20 03:59:54;;;;;;;8.37;1.03;;;6.10;99.90;;;;;;7341141;19;111820;-79
2022/01/20 04:02:21;;;;;;;14.10;1.30;;;6.10;99.90;;;;;;7337958;19;110728;-79
2022/01/20 04:04:48;;;;;;;5.83;0.90;;;6.10;99.90;;;;;;7341075;19;111327;-79
2022/01/20 04:07:15;;;;;;;6.33;1.30;;;6.10;99.90;;;;;;7338700;19;111792;-80
2022/01/20 04:09:44;;;;;;;10.17;1.10;;;6.10;99.90;;;;;;7345332;19;110039;-80
2022/01/20 04:12:11;;;;;;;12.60;1.13;;;6.10;99.90;;;;;;7340576;19;112118;-79
2022/01/20 04:14:45;;;;;;;8.10;1.30;;;6.10;99.90;;;;;;7338172;19;109439;-80
2022/01/20 04:17:18;;;;;;;10.93;1.67;;;6.10;99.90;;;;;;7339521;19;109384;-79
2022/01/20 04:19:46;;;;;;;12.27;1.40;;;6.10;99.90;;;;;;7339618;19;115342;-80
2022/01/20 04:22:13;;;;;;;14.97;1.30;;;6.10;99.90;;;;;;7338814;19;110699;-80
2022/01/20 04:24:45;;;;;;;15.00;1.93;;;6.10;99.90;;;;;;7339275;19;111263;-80
2022/01/20 04:27:12;;;;;;;12.33;1.60;;;6.10;99.90;;;;;;7339502;19;115691;-80
2022/01/20 04:29:39;;;;;;;;;;;6.10;99.90;;;;;;7340231;19;112175;-80
2022/01/20 04:32:06;;;;;;;11.43;1.37;;;6.10;99.90;;;;;;7346064;19;111792;-80
2022/01/20 04:34:33;;;;;;;13.23;1.57;;;6.10;99.90;;;;;;7342107;19;109473;-80
2022/01/20 04:37:04;;;;;;;12.37;1.60;;;6.10;99.90;;;;;;7336748;19;113166;-80
2022/01/20 04:39:35;;;;;;;12.20;1.47;;;6.10;99.90;;;;;;7341015;19;111682;-80
2022/01/20 04:42:02;;;;;;;21.23;2.53;;;6.00;99.90;;;;;;7337724;19;109549;-80
2022/01/20 04:47:15;;;;;;;12.03;1.80;;;6.00;99.90;;;;;;7338080;19;110225;-80
2022/01/20 04:57:59;;;;;;;17.50;2.63;;;5.90;99.90;;;;;;7346978;19;111535;-80
2022/01/20 05:00:26;;;;;;;17.33;2.90;;;5.90;99.90;;;;;;7343169;19;115069;-81
2022/01/20 05:02:53;;;;;;;13.83;2.43;;;5.90;99.90;;;;;;7344572;19;109469;-80
2022/01/20 05:05:21;;;;;;;16.03;2.53;;;5.90;99.90;;;;;;7346338;19;109782;-80
2022/01/20 05:07:48;;;;;;;14.57;3.23;;;5.90;99.90;;;;;;7344673;19;114955;-80
2022/01/20 05:10:15;;;;;;;20.03;2.53;;;5.90;99.90;;;;;;7348036;19;109412;-81
2022/01/20 05:15:19;;;;;;;17.27;2.53;;;5.90;99.90;;;;;;7352396;19;110745;-81
2022/01/20 05:17:47;;;;;;;16.50;2.53;;;5.90;99.90;;;;;;7344755;19;114189;-81
2022/01/20 05:20:14;;;;;;;22.97;2.83;;;5.80;99.90;;;;;;7345774;19;112603;-80
2022/01/20 05:22:44;;;;;;;12.87;2.23;;;5.80;99.90;;;;;;7347442;19;109299;-80
2022/01/20 05:25:13;;;;;;;23.33;3.00;;;5.80;99.90;;;;;;7344931;19;112415;-80
2022/01/20 05:27:40;;;;;;;22.37;2.53;;;5.80;99.90;;;;;;7346184;19;111889;-80
2022/01/20 05:30:08;;;;;;;19.50;2.47;;;5.80;99.90;;;;;;7341099;19;110430;-80
2022/01/20 05:32:35;;;;;;;17.70;2.70;;;5.80;99.90;;;;;;7347523;19;111735;-81
2022/01/20 05:35:02;;;;;;;18.00;2.30;;;5.80;99.90;;;;;;7342860;19;112547;-80
2022/01/20 05:37:29;;;;;;;23.20;2.50;;;5.80;99.90;;;;;;7351681;19;109354;-80
2022/01/20 05:39:56;;;;;;;18.53;2.43;;;5.80;99.90;;;;;;7343748;19;112194;-80
2022/01/20 05:42:23;;;;;;;;;;;5.80;99.90;;;;;;7344851;19;109382;-80
2022/01/20 05:44:51;;;;;;;21.30;2.30;;;5.70;99.90;;;;;;7347246;19;113745;-81
2022/01/20 05:47:26;;;;;;;16.17;2.10;;;5.70;99.90;;;;;;7342622;19;110243;-80
2022/01/20 05:49:53;;;;;;;27.67;2.73;;;5.70;99.90;;;;;;7344834;19;109842;-80
2022/01/20 05:52:20;;;;;;;28.87;3.57;;;5.70;99.90;;;;;;7343012;19;110947;-80
2022/01/20 05:54:47;;;;;;;19.70;2.77;;;5.70;99.90;;;;;;7345703;19;112138;-81
2022/01/20 05:57:14;;;;;;;24.63;2.47;;;5.70;99.90;;;;;;7339851;19;109497;-80
2022/01/20 05:59:41;;;;;;;24.90;2.43;;;5.70;99.90;;;;;;7346803;19;111352;-81
2022/01/20 06:02:30;;;;;;;26.87;2.87;;;5.80;99.90;;;;;;7340113;19;109617;-81
2022/01/20 06:04:57;;;;;;;27.77;2.67;;;5.80;99.90;;;;;;7342076;19;111390;-80
2022/01/20 06:07:25;;;;;;;26.43;2.80;;;5.80;99.90;;;;;;7344703;19;111923;-81
2022/01/20 06:09:52;;;;;;;24.53;2.73;;;5.70;99.90;;;;;;7339093;19;109320;-80
2022/01/20 06:12:19;;;;;;;27.20;3.27;;;5.70;99.90;;;;;;7343196;19;111748;-80
2022/01/20 06:14:46;;;;;;;;;;;5.80;99.90;;;;;;7339194;19;111103;-79
2022/01/20 06:17:13;;;;;;;17.67;1.90;;;5.70;99.90;;;;;;7345163;19;109830;-79
2022/01/20 06:19:40;;;;;;;16.33;1.67;;;5.70;99.90;;;;;;7339226;19;110937;-78
2022/01/20 06:22:10;;;;;;;;;;;5.70;99.90;;;;;;7348967;19;111748;-79
2022/01/20 06:24:36;;;;;;;20.67;2.10;;;5.60;99.90;;;;;;7344632;19;110699;-79
2022/01/20 06:27:03;;;;;;;;;;;5.60;99.90;;;;;;7342635;19;115531;-79
2022/01/20 06:29:30;;;;;;;17.63;1.73;;;5.60;99.90;;;;;;7348149;19;109547;-80
2022/01/20 06:31:57;;;;;;;15.37;1.67;;;5.60;99.90;;;;;;7339333;19;111557;-79
2022/01/20 06:34:24;;;;;;;19.87;1.73;;;5.60;99.90;;;;;;7342672;19;112301;-80
2022/01/20 06:36:51;;;;;;;;;;;5.60;99.90;;;;;;7340131;19;109954;-80
2022/01/20 06:39:18;;;;;;;13.67;2.57;;;5.60;99.90;;;;;;7343383;19;113344;-80
2022/01/20 06:41:47;;;;;;;15.93;2.53;;;5.60;99.90;;;;;;7339514;19;114412;-80
2022/01/20 06:44:14;;;;;;;13.47;1.90;;;5.60;99.90;;;;;;7346169;19;111763;-80
2022/01/20 06:46:41;;;;;;;19.60;2.60;;;5.60;99.90;;;;;;7338996;19;111684;-81
2022/01/20 06:49:10;;;;;;;14.83;2.23;;;5.60;99.90;;;;;;7341356;19;109533;-81
2022/01/20 06:51:37;;;;;;;19.93;2.40;;;5.60;99.90;;;;;;7338217;19;111316;-80
2022/01/20 06:54:05;;;;;;;14.13;2.50;;;5.60;99.90;;;;;;7340175;19;111258;-80
2022/01/20 06:56:31;;;;;;;14.73;1.83;;;5.60;99.90;;;;;;7344207;19;110394;-80
2022/01/20 06:59:14;;;;;;;14.97;2.00;;;5.70;99.90;;;;;;7340157;19;113730;-80
2022/01/20 07:01:42;;;;;;;19.00;2.90;;;5.70;99.90;;;;;;7341088;19;112237;-80
2022/01/20 07:04:10;;;;;;;17.17;3.60;;;5.60;99.90;;;;;;7344509;19;110907;-80
2022/01/20 07:06:37;;;;;;;19.43;3.47;;;5.70;99.90;;;;;;7340346;19;111258;-80
2022/01/20 07:09:04;;;;;;;19.33;3.10;;;5.70;99.90;;;;;;7342297;19;109802;-80
2022/01/20 07:11:31;;;;;;;19.00;4.07;;;5.70;99.90;;;;;;7339613;19;112223;-80
2022/01/20 07:13:58;;;;;;;19.93;3.50;;;5.70;99.90;;;;;;7341491;19;111825;-80
2022/01/20 07:16:26;;;;;;;17.57;3.90;;;5.60;99.90;;;;;;7337997;19;110975;-80
2022/01/20 07:18:53;;;;;;;22.83;4.00;;;5.60;99.90;;;;;;7343751;19;111360;-80
2022/01/20 07:21:20;;;;;;;16.97;2.63;;;5.60;99.90;;;;;;7339489;19;112593;-80
2022/01/20 07:23:47;;;;;;;14.63;2.70;;;5.70;99.90;;;;;;7343777;19;109666;-80
2022/01/20 07:26:14;;;;;;;17.10;2.60;;;5.60;99.90;;;;;;7345263;19;111534;-80
2022/01/20 07:28:42;;;;;;;20.07;3.00;;;5.70;99.90;;;;;;7340203;19;109416;-80
2022/01/20 07:31:09;;;;;;;14.53;2.93;;;5.70;99.90;;;;;;7338654;19;111882;-81
2022/01/20 07:33:36;;;;;;;20.27;3.30;;;5.70;99.90;;;;;;7341409;19;111752;-80
2022/01/20 07:36:04;;;;;;;13.43;2.97;;;5.70;99.90;;;;;;7341897;19;110230;-79
2022/01/20 07:38:32;;;;;;;19.63;3.20;;;5.70;99.90;;;;;;7339365;19;113622;-80
2022/01/20 07:40:59;;;;;;;17.77;3.77;;;5.60;99.90;;;;;;7340694;19;111573;-80
2022/01/20 07:43:28;;;;;;;24.07;4.43;;;5.70;99.90;;;;;;7337978;19;111919;-80
2022/01/20 07:45:56;;;;;;;20.60;3.53;;;5.60;99.90;;;;;;7340585;19;110937;-80
2022/01/20 07:48:23;;;;;;;26.30;3.83;;;5.60;99.90;;;;;;7346334;19;110183;-80
2022/01/20 07:50:50;;;;;;;24.53;3.47;;;5.70;99.90;;;;;;7340611;19;111166;-80
2022/01/20 07:53:17;;;;;;;23.77;4.07;;;5.60;99.90;;;;;;7340082;19;112174;-80
2022/01/20 07:55:44;;;;;;;23.00;3.90;;;5.70;99.90;;;;;;7340017;19;113199;-80
2022/01/20 07:58:12;;;;;;;28.80;5.33;;;5.60;99.90;;;;;;7340668;19;109804;-80
2022/01/20 08:00:39;;;;;;;21.03;4.83;;;5.60;99.90;;;;;;7339930;19;110480;-80
2022/01/20 08:03:06;;;;;;;31.60;4.10;;;5.60;99.90;;;;;;7342077;19;110869;-81
2022/01/20 08:05:34;;;;;;;28.23;4.00;;;5.60;99.90;;;;;;7338780;19;111594;-80
2022/01/20 08:08:01;;;;;;;19.67;3.67;;;5.70;99.90;;;;;;7331287;19;113442;-80
2022/01/20 08:10:28;;;;;;;17.77;3.20;;;5.70;99.90;;;;;;7342680;19;110320;-80
2022/01/20 08:12:55;;;;;;;20.97;2.57;;;5.70;99.90;;;;;;7339864;19;112551;-81
2022/01/20 08:15:22;;;;;;;23.90;3.43;;;5.70;99.90;;;;;;7339009;19;109920;-80
2022/01/20 08:17:49;;;;;;;21.03;3.30;;;5.60;99.90;;;;;;7337132;19;111408;-80
2022/01/20 08:20:16;;;;;;;20.60;2.67;;;5.70;99.90;;;;;;7335959;19;112742;-80
2022/01/20 08:22:43;;;;;;;26.13;3.63;;;5.60;99.90;;;;;;7334003;19;109636;-80
2022/01/20 08:25:13;;;;;;;24.33;3.50;;;5.60;99.90;;;;;;7338196;19;111107;-79
2022/01/20 08:27:42;;;;;;;22.53;3.47;;;5.50;99.90;;;;;;7336227;19;110498;-80
2022/01/20 08:30:12;;;;;;;23.77;2.70;;;5.50;99.90;;;;;;7341759;19;111318;-80
2022/01/20 08:32:40;;;;;;;23.10;2.37;;;5.60;99.90;;;;;;7343894;19;111441;-80
2022/01/20 08:35:09;;;;;;;16.00;2.40;;;5.60;99.90;;;;;;7340772;19;109668;-80
2022/01/20 08:37:40;;;;;;;17.40;2.33;;;5.60;99.90;;;;;;7337185;19;113319;-80
2022/01/20 08:40:09;;;;;;;26.30;3.20;;;5.60;99.90;;;;;;7337787;19;113698;-81
2022/01/20 08:42:36;;;;;;;26.77;3.30;;;5.60;99.90;;;;;;7339276;19;109490;-80
2022/01/20 08:45:04;;;;;;;19.80;2.40;;;5.70;99.90;;;;;;7337183;19;112150;-80
2022/01/20 08:47:31;;;;;;;29.20;3.10;;;5.70;99.90;;;;;;7340852;19;111797;-80
2022/01/20 08:49:59;;;;;;;23.17;3.10;;;5.80;99.90;;;;;;7335079;19;109379;-80
2022/01/20 08:52:30;;;;;;;21.07;3.23;;;5.70;99.90;;;;;;7340324;19;111262;-80
2022/01/20 08:55:00;;;;;;;21.23;3.20;;;5.80;99.90;;;;;;7344007;19;115171;-80
2022/01/20 08:57:28;;;;;;;21.73;3.10;;;5.80;99.90;;;;;;7338158;19;111183;-80
2022/01/20 08:59:56;;;;;;;21.93;2.97;;;5.80;99.90;;;;;;7336192;19;111321;-80
2022/01/20 09:02:23;;;;;;;18.27;3.00;;;5.80;99.90;;;;;;7337493;19;110578;-80
2022/01/20 09:04:51;;;;;;;18.17;3.10;;;5.80;99.90;;;;;;7339737;19;111263;-78
2022/01/20 09:07:18;;;;;;;22.63;3.73;;;5.90;99.90;;;;;;7337596;19;112115;-80
2022/01/20 09:09:47;;;;;;;29.27;3.43;;;5.90;99.90;;;;;;7341449;19;109667;-79
2022/01/20 09:17:32;;;;;;;17.00;2.57;;;5.90;99.90;;;;;;7337619;19;109837;-80
2022/01/20 09:19:59;;;;;;;20.87;3.40;;;5.90;99.90;;;;;;7338275;19;114716;-80
2022/01/20 09:22:29;;;;;;;20.47;2.83;;;5.90;99.90;;;;;;7336560;19;109617;-79
2022/01/20 09:24:56;;;;;;;18.00;2.90;;;6.00;99.90;;;;;;7336680;19;111358;-80
2022/01/20 09:27:23;;;;;;;26.87;3.60;;;6.00;99.90;;;;;;7337737;19;114846;-80
2022/01/20 09:29:50;;;;;;;23.17;3.30;;;6.00;99.90;;;;;;7335552;19;110867;-79
2022/01/20 09:32:19;;;;;;;19.73;3.30;;;6.00;99.90;;;;;;7337980;19;112138;-80
2022/01/20 09:34:46;;;;;;;17.93;3.10;;;6.00;99.90;;;;;;7336114;19;115579;-80
2022/01/20 09:37:13;;;;;;;18.20;2.80;;;6.10;99.90;;;;;;7347217;19;109264;-80
2022/01/20 09:39:41;;;;;;;19.13;2.90;;;6.10;99.90;;;;;;7343859;19;110641;-80
2022/01/20 09:42:08;;;;;;;19.43;2.57;;;6.10;99.90;;;;;;7344641;19;109340;-80
2022/01/20 09:44:41;;;;;;;17.23;2.80;;;6.10;99.90;;;;;;7344782;19;111894;-80
2022/01/20 09:47:08;;;;;;;21.70;3.43;;;6.10;99.90;;;;;;7343657;19;112014;-80
2022/01/20 09:49:36;;;;;;;18.50;2.57;;;6.10;99.90;;;;;;7344410;19;109347;-80
2022/01/20 09:52:04;;;;;;;20.03;2.93;;;6.10;99.90;;;;;;7342584;19;110369;-80
2022/01/20 09:54:31;;;;;;;21.90;2.43;;;6.10;99.90;;;;;;7346404;19;111853;-80
2022/01/20 09:56:59;;;;;;;16.53;2.53;;;6.10;99.90;;;;;;7341616;19;109658;-80
2022/01/20 09:59:26;;;;;;;17.33;2.47;;;6.00;99.90;;;;;;7349277;19;109843;-80
2022/01/20 10:01:56;;;;;;;11.60;2.30;;;6.10;99.90;;;;;;7341853;19;109411;-80
2022/01/20 10:04:35;;;;;;;19.13;2.50;;;6.10;99.90;;;;;;7343713;19;109699;-80
2022/01/20 10:07:08;;;;;;;18.53;2.77;;;6.20;99.90;;;;;;7346150;19;111678;-80
2022/01/20 10:09:41;;;;;;;18.67;2.70;;;6.20;99.90;;;;;;7340841;19;109792;-80
2022/01/20 10:12:11;;;;;;;11.77;2.50;;;6.10;99.90;;;;;;7345694;19;111201;-79
2022/01/20 10:14:44;;;;;;;15.27;2.17;;;6.20;99.90;;;;;;7340518;19;110672;-80
2022/01/20 10:17:18;;;;;;;17.87;3.10;;;6.20;99.90;;;;;;7344985;19;109686;-80
2022/01/20 10:19:46;;;;;;;23.80;4.67;;;6.30;99.90;;;;;;7344502;19;111517;-80
2022/01/20 10:22:15;;;;;;;22.37;2.80;;;6.30;99.90;;;;;;7347930;19;115028;-80
2022/01/20 10:24:59;;;;;;;17.93;4.43;;;6.30;99.90;;;;;;7343881;19;111041;-80
2022/01/20 10:27:26;;;;;;;17.57;3.57;;;6.30;99.90;;;;;;7341370;19;112088;-80
2022/01/20 10:30:08;;;;;;;20.67;2.90;;;6.30;99.90;;;;;;7343817;19;109610;-80
2022/01/20 10:32:44;;;;;;;15.57;2.47;;;6.40;99.90;;;;;;7342049;19;110902;-80
2022/01/20 10:35:16;;;;;;;14.82;1.92;;;6.40;99.90;;;;;;7341896;19;111897;-80
2022/01/20 10:38:10;;;;;;;12.37;1.90;;;6.40;99.90;;;;;;7345695;19;109351;-80
2022/01/20 10:40:59;;;;;;;10.93;2.17;;;6.40;99.90;;;;;;7339208;19;112554;-80
2022/01/20 10:43:33;;;;;;;17.50;1.90;;;6.50;99.90;;;;;;7343569;19;111963;-80
2022/01/20 10:46:10;;;;;;;8.13;1.67;;;6.50;99.90;;;;;;7345571;19;109374;-80
2022/01/20 10:48:39;;;;;;;13.25;2.28;;;6.60;99.90;;;;;;7342809;19;112557;-79
2022/01/20 10:51:20;;;;;;;15.73;2.47;;;6.70;99.90;;;;;;7342165;19;109439;-79
2022/01/20 10:54:16;;;;;;;19.93;1.90;;;6.60;99.90;;;;;;7339656;19;111404;-80
2022/01/20 10:56:49;;;;;;;13.10;2.20;;;6.60;99.90;;;;;;7340478;19;111751;-80
2022/01/20 10:59:17;;;;;;;11.53;2.13;;;6.60;99.90;;;;;;7338998;19;110339;-80
2022/01/20 11:01:56;;;;;;;12.13;2.00;;;6.60;99.90;;;;;;7342372;19;111949;-80
2022/01/20 11:04:23;;;;;;;15.90;2.63;;;6.60;99.90;;;;;;7344341;19;111858;-79
2022/01/20 11:06:55;;;;;;;15.47;2.23;;;6.70;99.90;;;;;;7339653;19;109394;-80
2022/01/20 11:09:23;;;;;;;17.17;2.47;;;6.70;99.90;;;;;;7349445;19;111345;-80
2022/01/20 11:11:51;;;;;;;16.17;2.47;;;6.70;99.90;;;;;;7340435;19;111854;-80
2022/01/20 11:14:18;;;;;;;14.40;2.47;;;6.70;99.90;;;;;;7341713;19;111111;-80
2022/01/20 11:16:45;;;;;;;19.93;2.50;;;6.80;99.90;;;;;;7339188;19;115290;-80
2022/01/20 11:19:19;;;;;;;12.17;2.03;;;6.80;99.90;;;;;;7342949;19;109542;-80
2022/01/20 11:21:48;;;;;;;14.37;2.23;;;6.80;99.90;;;;;;7340507;19;111093;-80
2022/01/20 11:24:24;;;;;;;14.57;2.73;;;6.90;99.90;;;;;;7340107;19;112166;-80
2022/01/20 11:26:58;;;;;;;16.45;2.88;;;6.90;99.90;;;;;;7344223;19;110371;-80
2022/01/20 11:29:50;;;;;;;14.53;3.10;;;6.90;99.90;;;;;;7345484;19;111269;-80
2022/01/20 11:32:22;;;;;;;16.53;2.27;;;6.90;99.90;;;;;;7343257;19;109213;-81
2022/01/20 11:35:08;;;;;;;15.73;2.50;;;6.90;99.90;;;;;;7340819;19;114121;-80
2022/01/20 11:37:39;;;;;;;19.80;2.47;;;6.90;99.90;;;;;;7338691;19;111912;-80
2022/01/20 11:40:15;;;;;;;26.23;2.70;;;6.90;99.90;;;;;;7341358;19;110801;-80
2022/01/20 11:43:07;;;;;;;17.60;2.73;;;6.90;99.90;;;;;;7339551;19;111590;-81
2022/01/20 11:45:40;;;;;;;19.17;2.27;;;6.90;99.90;;;;;;7341670;19;112839;-80
2022/01/20 11:48:16;;;;;;;14.53;2.33;;;6.90;99.90;;;;;;7338927;19;109391;-80
2022/01/20 11:50:45;;;;;;;10.23;1.80;;;7.00;99.90;;;;;;7338553;19;111148;-81
2022/01/20 11:53:15;;;;;;;15.13;1.80;;;7.00;99.90;;;;;;7346739;19;112626;-80
2022/01/20 11:55:50;;;;;;;13.00;1.70;;;7.00;99.90;;;;;;7340156;19;113056;-80
2022/01/20 11:58:20;;;;;;;8.33;1.67;;;6.90;99.90;;;;;;7341854;19;114209;-80
2022/01/20 12:01:06;;;;;;;8.47;2.07;;;6.80;99.90;;;;;;7338880;19;111976;-80
2022/01/20 12:03:35;;;;;;;14.97;2.43;;;6.60;99.90;;;;;;7340759;19;110310;-80
2022/01/20 12:06:05;;;;;;;11.73;1.97;;;6.70;99.90;;;;;;7337698;19;112020;-80
2022/01/20 12:08:32;;;;;;;14.73;2.17;;;6.80;99.90;;;;;;7338067;19;109315;-80
2022/01/20 12:10:59;;;;;;;12.53;2.80;;;6.90;99.90;;;;;;7341354;19;111287;-81
2022/01/20 12:13:26;;;;;;;;;;;7.00;99.90;;;;;;7338159;19;112019;-80
2022/01/20 12:15:57;;;;;;;12.87;1.70;;;7.10;99.90;;;;;;7350407;19;109360;-80
2022/01/20 12:18:25;;;;;;;8.97;2.10;;;7.20;99.90;;;;;;7338733;19;110663;-80
2022/01/20 12:20:52;;;;;;;14.83;2.20;;;7.30;99.90;;;;;;7341401;19;110372;-81
2022/01/20 12:23:20;;;;;;;14.57;1.83;;;7.30;99.90;;;;;;7337092;19;111016;-80
2022/01/20 12:25:47;;;;;;;14.10;2.03;;;7.40;99.90;;;;;;7339046;19;114496;-80
2022/01/20 12:28:16;;;;;;;12.30;1.80;;;7.60;99.90;;;;;;7339886;19;110224;-80
2022/01/20 12:30:49;;;;;;;14.15;1.70;;;7.60;99.90;;;;;;7340006;19;111599;-80
2022/01/20 12:33:22;;;;;;;10.48;2.00;;;7.80;99.90;;;;;;7340098;19;111831;-80
2022/01/20 12:35:51;;;;;;;10.05;2.10;;;7.80;99.90;;;;;;7337637;19;109184;-81
2022/01/20 12:38:39;;;;;;;13.80;1.75;;;7.80;99.90;;;;;;7347254;19;111723;-80
2022/01/20 12:41:13;;;;;;;12.40;2.10;;;7.90;99.90;;;;;;7338562;19;110617;-80
2022/01/20 12:44:03;;;;;;;16.50;2.22;;;7.90;99.90;;;;;;7338629;19;111391;-80
2022/01/20 12:46:36;;;;;;;13.93;1.80;;;8.00;99.90;;;;;;7340600;19;110511;-80
2022/01/20 12:49:04;;;;;;;18.27;2.40;;;8.20;99.90;;;;;;7337120;19;109733;-80
2022/01/20 12:51:53;;;;;;;14.23;2.20;;;8.30;99.90;;;;;;7340065;19;111470;-80
2022/01/20 12:54:27;;;;;;;11.35;1.58;;;8.30;99.90;;;;;;7338994;19;113062;-80
2022/01/20 12:56:59;;;;;;;14.43;2.10;;;8.50;99.90;;;;;;7336692;19;109813;-81
2022/01/20 12:59:35;;;;;;;13.80;2.40;;;8.60;99.90;;;;;;7341454;19;111327;-81
2022/01/20 13:02:07;;;;;;;16.97;1.97;;;8.50;99.90;;;;;;7342295;19;111839;-80
2022/01/20 13:04:36;;;;;;;10.43;1.90;;;8.50;99.90;;;;;;7341444;19;112260;-80
2022/01/20 13:07:05;;;;;;;13.43;1.58;;;8.40;99.90;;;;;;7336406;19;111834;-81
2022/01/20 13:09:41;;;;;;;11.45;1.90;;;8.40;99.90;;;;;;7338916;19;115982;-80
2022/01/20 13:12:14;;;;;;;13.23;1.67;;;8.40;99.90;;;;;;7346067;19;110450;-80
2022/01/20 13:14:49;;;;;;;10.90;1.90;;;8.40;99.90;;;;;;7343840;19;112385;-80
2022/01/20 13:17:28;;;;;;;14.10;1.60;;;8.50;99.90;;;;;;7348245;19;109498;-80
2022/01/20 13:19:58;;;;;;;11.05;2.05;;;8.40;99.80;;;;;;7342329;19;111405;-80
2022/01/20 13:22:30;;;;;;;16.25;1.80;;;8.20;99.90;;;;;;7345018;19;111252;-81
2022/01/20 13:25:15;;;;;;;13.05;1.60;;;8.10;99.90;;;;;;7348863;19;111755;-81
2022/01/20 13:27:58;;;;;;;16.15;2.05;;;8.10;99.90;;;;;;7346316;19;112929;-80
2022/01/20 13:30:41;;;;;;;14.02;2.03;;;8.00;99.90;;;;;;7346683;19;110794;-81
2022/01/20 13:33:20;;;;;;;20.58;2.25;;;8.00;99.90;;;;;;7344016;19;114045;-82
2022/01/20 13:35:52;;;;;;;11.63;2.00;;;8.00;99.90;;;;;;7345509;19;113269;-82
2022/01/20 13:38:19;;;;;;;12.05;1.83;;;8.00;99.90;;;;;;7344796;19;109530;-80
2022/01/20 13:40:47;;;;;;;7.13;1.88;;;8.00;99.90;;;;;;7346577;19;110628;-81
2022/01/20 13:46:06;;;;;;;10.95;2.00;;;8.20;99.90;;;;;;7349915;19;109669;-80
2022/01/20 13:48:34;;;;;;;9.90;2.15;;;8.40;99.90;;;;;;7345618;19;111946;-81
2022/01/20 13:51:03;;;;;;;8.82;1.63;;;8.60;99.90;;;;;;7341892;19;110193;-82
2022/01/20 13:53:34;;;;;;;16.83;2.13;;;8.70;99.90;;;;;;7346211;19;115016;-82
2022/01/20 13:56:06;;;;;;;13.07;2.03;;;8.70;99.90;;;;;;7342302;19;111645;-81
2022/01/20 13:58:37;;;;;;;14.70;1.90;;;8.60;99.50;;;;;;7345507;19;112342;-83
2022/01/20 14:01:09;;;;;;;13.98;2.08;;;8.50;99.90;;;;;;7344314;19;110544;-80
2022/01/20 14:03:40;;;;;;;12.35;1.70;;;8.50;99.90;;;;;;7345361;19;111972;-82
2022/01/20 14:06:07;;;;;;;13.32;1.75;;;8.40;99.90;;;;;;7347108;19;109664;-82
2022/01/20 14:08:36;;;;;;;12.43;1.67;;;8.30;99.90;;;;;;7347717;19;111807;-81
2022/01/20 14:11:04;;;;;;;8.38;1.65;;;8.20;99.90;;;;;;7346644;19;112196;-83
2022/01/20 14:13:32;;;;;;;14.05;1.77;;;8.00;99.90;;;;;;7343325;19;111523;-81
2022/01/20 14:16:01;;;;;;;9.35;1.65;;;7.90;99.90;;;;;;7343795;19;115018;-81